Terminal Aerodrome Forecast
Issued by NWS Lake Charles, LA

Current Version | Previous Version | Text Only | Print | Product List | Glossary On
Versions: 1 2 3 4 5 6 7 8 9 10 11 12 13
000
FTUS44 KLCH 262300
TAFLCH
TAF
KLCH 262320Z 2700/2724 12010KT P6SM VCSH SCT012 OVC040
      TEMPO 2700/2702 BKN012
     FM270200 12010KT P6SM VCSH OVC012
     FM270600 13010KT 5SM BR VCSH OVC007
     FM270900 14008KT 3SM BR VCSH OVC003
     FM271500 16007KT 4SM -RA BR VCTS OVC007CB
     FM271800 19009KT 4SM -TSRA BR OVC007CB=

USA.gov is the U.S. government's official web portal to all federal, state and local government web resources and services.